Time;durP1;ratioP1;P1;durP2;ratioP2;P2;SDS_P1;SDS_P2;PMS_P1;PMS_P2;Temp;Humidity;BMP_temperature;BMP_pressure;BME280_temperature;BME280_humidity;BME280_pressure;Samples;Min_cycle;Max_cycle;Signal;HPM_P1;HPM_P2
2022/08/18 00:02:17;;;;;;;0.83;0.83;;;;;;;28.03;39.90;94908.50;5050590;28;20212;-64
2022/08/18 00:04:45;;;;;;;1.70;1.30;;;;;;;28.10;39.10;94918.63;5042031;28;20201;-64
2022/08/18 00:07:32;;;;;;;0.93;0.93;;;;;;;28.04;39.49;94910.09;5068475;28;20264;-65
2022/08/18 00:10:00;;;;;;;1.27;1.20;;;;;;;28.27;38.58;94908.06;5060039;28;20197;-66
2022/08/18 00:12:40;;;;;;;1.30;1.20;;;;;;;28.14;38.59;94909.44;5057501;28;20199;-65
2022/08/18 00:15:11;;;;;;;0.60;0.60;;;;;;;28.15;38.55;94911.00;5059952;28;20289;-65
2022/08/18 00:17:38;;;;;;;0.50;0.50;;;;;;;28.14;38.63;94914.81;5038806;28;20632;-66
2022/08/18 00:20:09;;;;;;;0.73;0.60;;;;;;;28.08;38.43;94902.81;5063926;28;20207;-65
2022/08/18 00:22:38;;;;;;;0.90;0.80;;;;;;;27.89;38.90;94903.69;5040329;28;20291;-65
2022/08/18 00:25:08;;;;;;;3.13;0.60;;;;;;;28.16;38.31;94915.22;5063303;28;20207;-65
2022/08/18 00:27:40;;;;;;;0.70;0.70;;;;;;;27.97;38.84;94899.22;5065704;28;20193;-65
2022/08/18 00:30:10;;;;;;;0.97;0.87;;;;;;;28.01;38.77;94913.47;5052836;28;20196;-65
2022/08/18 00:32:45;;;;;;;1.00;1.00;;;;;;;28.10;38.51;94913.22;5043883;28;20220;-66
2022/08/18 00:35:36;;;;;;;1.17;1.07;;;;;;;27.97;38.52;94915.38;5072400;28;20191;-65
2022/08/18 00:38:07;;;;;;;0.30;0.30;;;;;;;27.91;38.89;94903.31;5071871;28;20207;-65
2022/08/18 00:40:51;;;;;;;0.40;0.40;;;;;;;27.67;39.63;94917.22;5043984;28;20232;-66
2022/08/18 00:43:31;;;;;;;0.80;0.80;;;;;;;27.92;39.17;94918.34;5064640;28;20244;-65
2022/08/18 00:45:58;;;;;;;0.20;0.20;;;;;;;27.86;39.04;94920.56;5051230;28;20206;-64
2022/08/18 00:48:29;;;;;;;0.20;0.20;;;;;;;27.97;38.92;94915.38;5039141;28;20906;-65
2022/08/18 00:51:00;;;;;;;0.80;0.80;;;;;;;27.95;38.98;94914.97;5039233;28;20201;-64
2022/08/18 00:53:40;;;;;;;0.40;0.40;;;;;;;27.73;39.69;94929.22;5042690;28;20575;-65
2022/08/18 00:56:12;;;;;;;1.17;1.03;;;;;;;27.66;39.89;94937.22;5048158;28;20227;-65
2022/08/18 00:59:08;;;;;;;0.80;0.80;;;;;;;27.51;40.15;94930.06;5034634;28;20624;-65
2022/08/18 01:01:36;;;;;;;1.07;0.77;;;;;;;27.29;40.38;94941.59;5057691;28;20224;-64
2022/08/18 01:04:10;;;;;;;0.57;0.40;;;;;;;27.53;39.66;94938.53;5071288;28;20934;-65
2022/08/18 01:06:57;;;;;;;0.73;0.67;;;;;;;27.49;40.09;94938.50;5059243;28;20287;-65
2022/08/18 01:09:24;;;;;;;0.93;0.77;;;;;;;27.52;39.93;94931.59;5031854;28;20710;-64
2022/08/18 01:11:51;;;;;;;0.40;0.40;;;;;;;27.42;40.31;94927.63;5045396;28;20651;-65
2022/08/18 01:14:19;;;;;;;0.93;0.93;;;;;;;27.35;40.38;94935.59;5071379;28;20199;-65
2022/08/18 01:22:36;;;;;;;1.70;0.60;;;;;;;27.25;40.19;94938.03;5047273;28;20315;-66
2022/08/18 01:27:54;;;;;;;0.40;0.40;;;;;;;26.83;41.22;94933.50;5042767;28;20204;-65
2022/08/18 01:30:27;;;;;;;0.60;0.60;;;;;;;27.23;40.73;94929.56;5058283;28;20728;-65
2022/08/18 01:32:54;;;;;;;1.13;0.70;;;;;;;27.21;40.63;94915.72;5056223;28;20199;-64
2022/08/18 01:35:24;;;;;;;0.57;0.53;;;;;;;27.20;40.67;94932.97;5059652;28;20200;-65
2022/08/18 01:37:54;;;;;;;0.73;0.70;;;;;;;27.08;40.80;94927.78;5046775;28;20738;-64
2022/08/18 01:40:22;;;;;;;1.20;1.10;;;;;;;27.11;40.87;94925.16;5051904;28;20253;-65
2022/08/18 01:43:10;;;;;;;1.43;1.33;;;;;;;26.76;40.95;94928.00;5042431;28;20232;-65
2022/08/18 01:45:37;;;;;;;0.60;0.60;;;;;;;26.72;40.93;94924.47;5059200;28;20193;-65
2022/08/18 01:48:05;;;;;;;0.70;0.70;;;;;;;26.60;41.12;94921.13;5055041;28;20226;-64
2022/08/18 01:50:33;;;;;;;1.13;1.10;;;;;;;26.25;42.29;94913.16;5050144;28;20660;-63
2022/08/18 01:53:04;;;;;;;0.77;0.77;;;;;;;26.57;41.79;94913.78;5046458;28;20228;-65
2022/08/18 01:55:34;;;;;;;0.83;0.83;;;;;;;26.45;41.83;94917.38;5048794;28;20205;-66
2022/08/18 01:58:01;;;;;;;0.83;0.83;;;;;;;26.59;41.76;94909.59;5054053;28;20200;-65
2022/08/18 02:00:28;;;;;;;0.27;0.27;;;;;;;26.61;41.32;94923.44;5051196;28;20782;-64
2022/08/18 02:02:55;;;;;;;1.43;0.97;;;;;;;26.72;41.39;94913.69;5050659;28;20220;-64
2022/08/18 02:05:35;;;;;;;0.83;0.67;;;;;;;26.49;41.93;94906.69;5039169;28;20195;-63
2022/08/18 02:08:04;;;;;;;0.10;0.10;;;;;;;26.53;41.50;94913.69;5059690;28;20204;-65
2022/08/18 02:10:32;;;;;;;1.43;0.93;;;;;;;26.29;41.84;94905.94;5053115;28;20200;-64
2022/08/18 02:12:59;;;;;;;1.03;1.03;;;;;;;26.27;42.14;94910.09;5069392;28;20204;-64
2022/08/18 02:15:27;;;;;;;0.30;0.30;;;;;;;26.48;41.82;94930.09;5042135;28;20259;-64
2022/08/18 02:17:53;;;;;;;0.50;0.50;;;;;;;25.44;44.02;94926.66;5070492;28;20200;-65
2022/08/18 02:20:20;;;;;;;0.20;0.20;;;;;;;25.33;44.63;94920.25;5042837;28;20730;-64
2022/08/18 02:22:48;;;;;;;0.70;0.70;;;;;;;25.92;43.51;94935.06;5050189;28;20259;-65
2022/08/18 02:25:17;;;;;;;1.10;0.87;;;;;;;26.22;43.03;94935.34;5044381;28;20194;-65
2022/08/18 02:27:45;;;;;;;1.00;0.93;;;;;;;26.51;42.49;94926.72;5053624;28;20200;-64
2022/08/18 02:30:15;;;;;;;0.40;0.40;;;;;;;26.72;42.18;94923.66;5051745;28;20216;-65
2022/08/18 02:32:42;;;;;;;1.13;0.80;;;;;;;26.64;42.07;94930.78;5060719;28;20208;-65
2022/08/18 02:35:10;;;;;;;0.60;0.60;;;;;;;26.52;42.00;94917.53;5069970;28;20210;-65
2022/08/18 02:37:41;;;;;;;0.83;0.83;;;;;;;26.61;42.19;94926.13;5069952;28;20282;-65
2022/08/18 02:40:11;;;;;;;0.73;0.73;;;;;;;26.63;42.19;94910.44;5069805;28;20674;-64
2022/08/18 02:42:45;;;;;;;0.53;0.53;;;;;;;26.53;42.31;94902.19;5069957;28;20628;-64
2022/08/18 02:45:13;;;;;;;0.40;0.40;;;;;;;26.57;42.69;94911.09;5053081;28;20201;-64
2022/08/18 02:47:40;;;;;;;1.27;1.17;;;;;;;26.35;42.87;94917.94;5045373;28;20192;-65
2022/08/18 02:50:11;;;;;;;0.80;0.80;;;;;;;26.37;43.05;94918.38;5049268;28;20204;-65
2022/08/18 02:52:38;;;;;;;0.63;0.63;;;;;;;26.50;42.61;94932.44;5030056;28;20209;-65
2022/08/18 02:55:07;;;;;;;2.17;1.23;;;;;;;26.45;42.72;94928.13;5061050;28;20227;-66
2022/08/18 02:57:35;;;;;;;0.63;0.63;;;;;;;26.51;42.55;94929.41;5037507;28;20196;-65
2022/08/18 03:00:03;;;;;;;0.97;0.70;;;;;;;26.31;42.88;94927.06;5063383;28;20588;-65
2022/08/18 03:02:31;;;;;;;0.30;0.30;;;;;;;26.03;43.26;94933.38;5043100;28;20586;-65
2022/08/18 03:04:58;;;;;;;1.70;1.20;;;;;;;26.11;43.15;94938.94;5057009;28;20204;-65
2022/08/18 03:07:24;;;;;;;0.67;0.67;;;;;;;26.06;43.10;94934.59;5058682;28;20201;-66
2022/08/18 03:09:51;;;;;;;0.87;0.87;;;;;;;26.09;42.84;94933.13;5041424;28;20283;-65
2022/08/18 03:12:18;;;;;;;0.37;0.37;;;;;;;26.01;43.16;94935.66;5053271;28;20199;-65
2022/08/18 03:14:45;;;;;;;0.70;0.70;;;;;;;26.00;42.92;94933.31;5069704;28;20188;-64
2022/08/18 03:17:13;;;;;;;0.37;0.37;;;;;;;25.82;43.19;94937.53;5069105;28;20725;-65
2022/08/18 03:19:43;;;;;;;0.93;0.93;;;;;;;25.79;43.42;94941.69;5070183;28;20663;-64
2022/08/18 03:22:14;;;;;;;0.57;0.57;;;;;;;25.94;43.13;94935.50;5067918;28;20741;-67
2022/08/18 03:24:55;;;;;;;0.60;0.60;;;;;;;25.73;43.55;94940.38;5051966;28;20207;-65
2022/08/18 03:27:23;;;;;;;0.30;0.30;;;;;;;25.60;43.75;94935.50;5039535;28;20204;-65
2022/08/18 03:29:50;;;;;;;0.70;0.70;;;;;;;25.54;43.83;94950.28;5046125;28;20200;-64
2022/08/18 03:32:17;;;;;;;1.13;1.00;;;;;;;25.47;44.11;94953.59;5060920;28;20609;-64
2022/08/18 03:34:44;;;;;;;0.33;0.33;;;;;;;25.20;44.54;94948.28;5067788;28;20199;-64
2022/08/18 03:37:11;;;;;;;0.73;0.40;;;;;;;25.48;43.98;94948.97;5041129;28;20197;-65
2022/08/18 03:39:39;;;;;;;0.47;0.47;;;;;;;25.51;44.16;94948.31;5052102;28;20227;-65
2022/08/18 03:42:06;;;;;;;0.50;0.50;;;;;;;25.55;44.24;94949.16;5052642;28;20271;-64
2022/08/18 03:44:37;;;;;;;0.83;0.83;;;;;;;25.42;44.21;94955.75;5067255;28;20203;-65
2022/08/18 03:47:09;;;;;;;0.30;0.30;;;;;;;25.56;44.31;94946.16;5062794;28;20195;-65
2022/08/18 03:49:37;;;;;;;0.70;0.70;;;;;;;25.44;44.35;94948.13;5055022;28;20204;-65
2022/08/18 03:52:08;;;;;;;2.00;0.73;;;;;;;25.47;44.24;94947.44;5047498;28;20588;-64
2022/08/18 03:54:35;;;;;;;0.63;0.60;;;;;;;25.18;45.14;94956.69;5073174;28;20298;-65
2022/08/18 03:57:01;;;;;;;1.03;0.93;;;;;;;25.34;44.61;94951.31;5035491;28;20189;-65
2022/08/18 03:59:30;;;;;;;1.03;0.97;;;;;;;25.66;43.94;94950.19;5040478;28;20205;-64
2022/08/18 04:01:58;;;;;;;0.60;0.60;;;;;;;25.49;44.48;94956.69;5034294;28;20690;-64
2022/08/18 04:04:27;;;;;;;0.27;0.27;;;;;;;25.50;44.19;94952.09;5035056;28;20308;-64
2022/08/18 04:07:04;;;;;;;0.63;0.63;;;;;;;25.80;43.85;94955.88;5044397;28;20206;-65
2022/08/18 04:09:32;;;;;;;1.37;1.27;;;;;;;25.59;43.96;94960.75;5052375;28;20200;-65
2022/08/18 04:12:10;;;;;;;0.60;0.60;;;;;;;25.64;43.92;94960.47;5040830;28;20205;-65
2022/08/18 04:14:46;;;;;;;1.60;1.50;;;;;;;25.46;44.49;94970.00;5038941;28;20196;-64
2022/08/18 04:17:22;;;;;;;0.40;0.40;;;;;;;25.49;43.97;94967.41;5052301;28;20200;-65
2022/08/18 04:19:55;;;;;;;1.50;0.90;;;;;;;25.52;44.56;94968.63;5046545;28;20228;-65
2022/08/18 04:22:24;;;;;;;1.83;0.93;;;;;;;25.56;44.43;94966.81;5052935;28;20204;-67
2022/08/18 04:24:51;;;;;;;1.40;1.30;;;;;;;25.69;44.09;94965.59;5037981;28;20185;-65
2022/08/18 04:27:19;;;;;;;2.43;1.23;;;;;;;25.53;43.84;94968.28;5064170;28;20195;-65
2022/08/18 04:29:46;;;;;;;0.87;0.87;;;;;;;25.52;44.27;94976.69;5057079;28;20231;-64
2022/08/18 04:32:14;;;;;;;1.47;1.30;;;;;;;25.50;43.98;94973.56;5047080;28;20247;-64
2022/08/18 04:34:40;;;;;;;0.40;0.40;;;;;;;25.76;43.96;94981.88;5051447;28;20540;-64
2022/08/18 04:37:08;;;;;;;0.57;0.53;;;;;;;25.80;43.78;94982.72;5059079;28;20303;-64
2022/08/18 04:39:37;;;;;;;0.80;0.60;;;;;;;25.82;43.76;94985.84;5046548;28;20188;-64
2022/08/18 04:42:04;;;;;;;1.57;1.47;;;;;;;25.72;43.82;94983.69;5042954;28;20241;-67
2022/08/18 04:44:33;;;;;;;0.80;0.80;;;;;;;25.73;43.73;94983.34;5064724;28;20209;-65
2022/08/18 04:47:00;;;;;;;0.60;0.60;;;;;;;25.72;43.97;94975.63;5064316;28;20277;-65
2022/08/18 04:49:29;;;;;;;0.60;0.60;;;;;;;25.67;44.35;94978.59;5070377;28;20203;-64
2022/08/18 04:55:03;;;;;;;0.70;0.70;;;;;;;25.84;44.37;94988.94;5065322;28;20187;-66
2022/08/18 04:57:33;;;;;;;5.30;1.27;;;;;;;26.05;44.12;94986.78;5045711;28;20199;-64
2022/08/18 05:00:19;;;;;;;12.40;4.83;;;;;;;26.35;43.66;94992.41;5042155;28;20197;-63
2022/08/18 05:03:04;;;;;;;1.67;1.50;;;;;;;26.09;44.19;94994.91;5051312;28;20738;-63
2022/08/18 05:05:31;;;;;;;5.83;4.60;;;;;;;26.01;44.41;94999.31;5069324;28;20195;-61
2022/08/18 05:07:58;;;;;;;1.67;1.57;;;;;;;26.08;44.24;94996.03;5071692;28;21017;-66
2022/08/18 05:10:25;;;;;;;1.17;1.07;;;;;;;26.14;44.14;94998.09;5068620;28;20276;-64
2022/08/18 05:12:52;;;;;;;1.00;1.00;;;;;;;26.23;44.07;94992.53;5051842;28;20212;-66
2022/08/18 05:15:19;;;;;;;1.47;1.37;;;;;;;26.27;44.12;94996.06;5051876;28;20200;-65
2022/08/18 05:17:46;;;;;;;1.50;1.37;;;;;;;26.34;44.04;94991.63;5057799;28;20195;-64
2022/08/18 05:20:16;;;;;;;0.60;0.60;;;;;;;26.37;44.25;94993.59;5058403;28;20670;-65
2022/08/18 05:22:44;;;;;;;3.63;2.70;;;;;;;26.65;44.03;94996.09;5051627;28;20212;-67
2022/08/18 05:25:11;;;;;;;2.50;2.27;;;;;;;26.56;44.35;94993.63;5051562;28;20224;-70
2022/08/18 05:27:41;;;;;;;8.23;4.83;;;;;;;26.44;44.22;95001.03;5054723;28;20203;-67
2022/08/18 05:30:10;;;;;;;0.90;0.90;;;;;;;26.68;43.71;95001.56;5061216;28;20701;-70
2022/08/18 05:32:42;;;;;;;4.47;1.63;;;;;;;26.96;43.13;95007.50;5065418;28;20195;-70
2022/08/18 05:35:23;;;;;;;1.57;1.47;;;;;;;26.64;43.60;95006.06;5041932;28;20276;-73
2022/08/18 05:38:05;;;;;;;1.07;0.67;;;;;;;26.54;43.65;95005.84;5033708;28;20200;-71
2022/08/18 05:40:33;;;;;;;1.50;1.17;;;;;;;26.71;43.43;95005.47;5061802;28;20206;-69
2022/08/18 05:43:02;;;;;;;1.10;1.10;;;;;;;26.83;42.90;95016.84;5054170;28;20298;-68
2022/08/18 05:45:29;;;;;;;2.00;1.53;;;;;;;26.83;42.90;94992.66;5068818;28;20184;-67
2022/08/18 05:47:58;;;;;;;14.43;2.20;;;;;;;26.56;44.95;95004.38;5052505;28;20208;-71
2022/08/18 05:50:27;;;;;;;0.83;0.63;;;;;;;27.03;43.24;95010.31;5041805;28;20201;-67
2022/08/18 05:52:57;;;;;;;1.00;1.00;;;;;;;26.61;44.55;95012.16;5046252;28;20210;-68
2022/08/18 05:58:28;;;;;;;1.37;1.07;;;;;;;27.31;42.87;95009.31;5058390;28;20199;-71
2022/08/18 06:01:22;;;;;;;1.43;1.37;;;;;;;27.31;42.41;95007.41;5039172;28;20214;-67
2022/08/18 06:04:04;;;;;;;0.60;0.60;;;;;;;27.08;43.09;95003.09;5068048;28;20230;-69
2022/08/18 06:06:32;;;;;;;0.47;0.47;;;;;;;27.41;42.42;95006.03;5058855;28;20205;-70
2022/08/18 06:09:07;;;;;;;0.60;0.60;;;;;;;27.03;42.80;95007.63;5060893;28;20208;-73
2022/08/18 06:11:33;;;;;;;0.93;0.93;;;;;;;27.28;41.76;95007.31;5042167;28;20207;-71
2022/08/18 06:14:00;;;;;;;1.03;0.93;;;;;;;27.50;41.54;95003.88;5065607;28;20640;-73
2022/08/18 06:16:53;;;;;;;3.00;1.40;;;;;;;27.28;42.29;95002.69;5060139;28;20203;-69
2022/08/18 06:20:00;;;;;;;1.67;1.00;;;;;;;27.36;42.27;95009.78;5052831;28;20295;-71
2022/08/18 06:22:42;;;;;;;1.27;1.17;;;;;;;27.66;41.39;94996.44;5067484;28;20204;-70
2022/08/18 06:26:05;;;;;;;1.57;1.47;;;;;;;27.00;43.56;95008.34;5044998;28;20201;-72
2022/08/18 06:28:46;;;;;;;0.90;0.80;;;;;;;27.35;43.58;95002.06;5030179;28;20204;-69
2022/08/18 06:31:34;;;;;;;5.37;2.93;;;;;;;27.86;41.37;95003.31;5054607;28;20204;-70
2022/08/18 06:34:17;;;;;;;0.80;0.80;;;;;;;27.61;41.79;95000.19;5071223;28;20203;-71
2022/08/18 06:36:51;;;;;;;2.80;1.80;;;;;;;27.06;42.88;95010.75;5062099;28;20192;-72
2022/08/18 06:39:33;;;;;;;2.30;1.40;;;;;;;27.27;41.91;95013.81;5050067;28;20204;-73
2022/08/18 06:42:04;;;;;;;0.60;0.60;;;;;;;27.75;40.89;94994.28;5059869;28;20290;-70
2022/08/18 06:44:36;;;;;;;1.93;1.83;;;;;;;27.87;40.31;95007.53;5055814;28;20234;-72
2022/08/18 06:47:29;;;;;;;5.60;2.50;;;;;;;27.90;40.08;94998.75;5070106;28;20200;-71
2022/08/18 06:50:01;;;;;;;0.90;0.90;;;;;;;28.01;40.91;94994.28;5060552;28;20201;-71
2022/08/18 06:52:35;;;;;;;2.27;1.77;;;;;;;28.16;40.72;94987.19;5041306;28;20254;-70
2022/08/18 06:55:11;;;;;;;3.37;1.73;;;;;;;28.67;40.04;94986.38;5065659;28;20611;-66
2022/08/18 06:57:53;;;;;;;1.60;1.50;;;;;;;28.38;41.71;94984.44;5030005;28;20646;-69
2022/08/18 07:00:27;;;;;;;2.73;1.43;;;;;;;28.87;40.92;94982.34;5057496;28;20258;-69
2022/08/18 07:03:01;;;;;;;2.47;1.63;;;;;;;28.75;41.63;94979.13;5051187;28;20713;-71
2022/08/18 07:05:33;;;;;;;1.30;1.20;;;;;;;28.92;40.13;94965.06;5064657;28;20193;-70
2022/08/18 07:08:16;;;;;;;0.77;0.77;;;;;;;29.32;40.21;94962.41;5040688;28;20212;-70
2022/08/18 07:10:46;;;;;;;1.27;1.20;;;;;;;29.62;38.91;94964.97;5063458;28;20214;-71
2022/08/18 07:13:27;;;;;;;1.20;1.10;;;;;;;29.76;38.11;94965.88;5050151;28;20188;-72
2022/08/18 07:16:16;;;;;;;1.40;1.10;;;;;;;29.92;37.92;94957.50;5049990;28;20347;-70
2022/08/18 07:19:11;;;;;;;1.30;1.13;;;;;;;30.11;37.17;94957.22;5066610;28;20205;-69
2022/08/18 07:21:42;;;;;;;1.37;1.30;;;;;;;30.41;36.88;94952.41;5069744;28;20644;-73
2022/08/18 07:24:24;;;;;;;0.77;0.77;;;;;;;30.45;38.06;94950.50;5063788;28;20322;-74
2022/08/18 07:27:03;;;;;;;0.40;0.40;;;;;;;30.47;36.35;94945.50;5040974;28;20257;-70
2022/08/18 07:29:34;;;;;;;0.87;0.87;;;;;;;30.86;35.86;94948.34;5054325;28;20207;-68
2022/08/18 07:32:14;;;;;;;0.70;0.70;;;;;;;30.81;36.04;94949.50;5069701;28;20621;-71
2022/08/18 07:34:56;;;;;;;0.70;0.70;;;;;;;30.92;35.48;94943.31;5056540;28;20228;-72
2022/08/18 07:37:29;;;;;;;3.00;1.00;;;;;;;30.76;35.63;94947.13;5057768;28;20226;-71
2022/08/18 07:40:13;;;;;;;1.27;1.13;;;;;;;31.00;35.18;94955.72;5036650;28;20233;-70
2022/08/18 07:43:05;;;;;;;0.67;0.67;;;;;;;31.11;35.09;94945.69;5064490;28;20223;-70
2022/08/18 07:45:36;;;;;;;1.77;1.17;;;;;;;31.31;34.32;94961.19;5047730;28;20222;-71
2022/08/18 07:48:11;;;;;;;2.07;1.20;;;;;;;31.25;34.06;94951.13;5061076;28;20184;-69
2022/08/18 07:51:22;;;;;;;1.33;1.23;;;;;;;31.81;34.11;94948.44;5037904;28;20229;-67
2022/08/18 07:54:12;;;;;;;2.50;1.07;;;;;;;31.70;34.11;94944.97;5046019;28;20655;-69
2022/08/18 07:57:17;;;;;;;0.60;0.60;;;;;;;31.64;33.29;94951.97;5033065;28;20192;-70
2022/08/18 08:00:06;;;;;;;0.80;0.80;;;;;;;32.46;33.92;94948.72;5037525;28;20293;-69
2022/08/18 08:02:50;;;;;;;1.33;0.77;;;;;;;32.51;33.30;94945.63;5029435;28;20562;-71
2022/08/18 08:05:38;;;;;;;1.13;1.03;;;;;;;32.57;32.95;94954.91;5057245;28;20304;-72
2022/08/18 08:08:34;;;;;;;0.50;0.50;;;;;;;32.31;32.00;94947.22;5050747;28;20195;-67
2022/08/18 08:11:13;;;;;;;1.23;0.73;;;;;;;32.57;32.21;94944.03;5038469;28;20632;-72
2022/08/18 08:13:57;;;;;;;0.70;0.60;;;;;;;32.65;31.51;94940.13;5038956;28;20636;-69
2022/08/18 08:16:40;;;;;;;0.47;0.47;;;;;;;32.55;31.94;94938.25;5062031;28;20207;-71
2022/08/18 08:19:28;;;;;;;1.33;1.17;;;;;;;32.87;31.81;94940.81;5069404;28;20223;-72
2022/08/18 08:22:28;;;;;;;0.47;0.47;;;;;;;32.81;31.35;94943.16;5065670;28;20588;-72
2022/08/18 08:25:09;;;;;;;2.23;1.67;;;;;;;33.07;30.64;94931.03;5041958;28;20212;-67
2022/08/18 08:28:02;;;;;;;0.70;0.67;;;;;;;32.94;30.93;94945.47;5059046;28;20624;-70
2022/08/18 08:30:32;;;;;;;0.80;0.80;;;;;;;33.18;30.23;94933.66;5072926;28;20200;-67
2022/08/18 08:33:19;;;;;;;1.40;1.27;;;;;;;33.58;30.07;94935.72;5051989;28;21000;-71
2022/08/18 08:36:29;;;;;;;0.37;0.37;;;;;;;33.41;29.35;94942.06;5038679;28;20286;-68
2022/08/18 08:39:03;;;;;;;0.70;0.70;;;;;;;32.75;30.26;94943.97;5052869;28;20230;-66
2022/08/18 08:41:37;;;;;;;0.80;0.80;;;;;;;33.28;29.68;94927.41;5058317;28;20227;-73
2022/08/18 08:44:04;;;;;;;1.20;1.10;;;;;;;33.44;30.09;94928.44;5072793;28;20223;-73
2022/08/18 08:46:48;;;;;;;1.20;1.10;;;;;;;33.38;29.36;94915.66;5044364;28;20200;-67
2022/08/18 08:49:24;;;;;;;0.63;0.63;;;;;;;33.48;29.46;94936.59;5044913;28;20745;-66
2022/08/18 08:52:01;;;;;;;0.77;0.77;;;;;;;34.05;28.77;94932.22;5044377;28;20198;-70
2022/08/18 08:54:33;;;;;;;0.97;0.90;;;;;;;33.86;29.06;94930.06;5058155;28;20203;-69
2022/08/18 08:57:02;;;;;;;0.60;0.60;;;;;;;34.14;29.21;94929.78;5032046;28;20583;-68
2022/08/18 08:59:29;;;;;;;5.43;1.37;;;;;;;34.66;28.95;94928.44;5051844;28;20253;-70
2022/08/18 09:02:11;;;;;;;0.70;0.70;;;;;;;34.45;28.05;94928.69;5041697;28;20197;-70
2022/08/18 09:05:10;;;;;;;0.60;0.60;;;;;;;34.51;27.55;94921.63;5065315;28;20264;-71
2022/08/18 09:08:05;;;;;;;1.07;0.97;;;;;;;34.82;27.33;94925.13;5039148;28;20576;-72
2022/08/18 09:10:48;;;;;;;0.80;0.80;;;;;;;34.79;27.18;94925.16;5068902;28;20265;-68
2022/08/18 09:13:49;;;;;;;0.90;0.90;;;;;;;34.61;27.95;94919.94;5060695;28;20196;-67
2022/08/18 09:16:40;;;;;;;1.27;1.17;;;;;;;34.57;27.23;94905.63;5054809;28;20197;-67
2022/08/18 09:19:11;;;;;;;1.10;1.00;;;;;;;33.61;27.02;94918.63;5054732;28;20670;-68
2022/08/18 09:21:48;;;;;;;1.10;1.00;;;;;;;34.28;26.39;94913.31;5071106;28;20200;-69
2022/08/18 09:24:15;;;;;;;0.60;0.60;;;;;;;34.80;27.18;94910.38;5039535;28;20651;-68
2022/08/18 09:27:03;;;;;;;2.00;0.63;;;;;;;34.93;26.94;94903.22;5061271;28;20192;-68
2022/08/18 09:29:46;;;;;;;0.67;0.67;;;;;;;34.73;25.86;94898.41;5042851;28;20192;-69
2022/08/18 09:32:19;;;;;;;1.30;0.90;;;;;;;34.86;25.75;94903.28;5070951;28;20216;-66
2022/08/18 09:35:13;;;;;;;2.13;1.30;;;;;;;34.26;25.71;94910.22;5057581;28;20193;-64
2022/08/18 09:44:42;;;;;;;0.40;0.40;;;;;;;35.58;25.46;94889.00;5046885;28;20213;-68
2022/08/18 09:47:31;;;;;;;1.70;1.47;;;;;;;35.09;25.25;94889.78;5060105;28;20200;-70
2022/08/18 09:50:03;;;;;;;0.67;0.63;;;;;;;34.79;25.62;94893.28;5060741;28;20213;-69
2022/08/18 09:52:33;;;;;;;1.10;0.87;;;;;;;34.66;26.15;94884.88;5042237;28;20212;-71
2022/08/18 09:55:26;;;;;;;0.27;0.27;;;;;;;35.40;25.79;94881.09;5052816;28;20253;-70
2022/08/18 09:58:22;;;;;;;0.87;0.83;;;;;;;35.93;26.43;94874.75;5042805;28;20227;-69
2022/08/18 10:01:32;;;;;;;0.70;0.70;;;;;;;35.55;25.29;94868.00;5044887;28;20207;-70
2022/08/18 10:04:13;;;;;;;0.83;0.83;;;;;;;35.82;24.69;94870.69;5070032;28;20266;-68
2022/08/18 10:06:44;;;;;;;0.50;0.50;;;;;;;34.88;25.31;94865.53;5044572;28;20304;-67
2022/08/18 10:09:57;;;;;;;1.77;0.60;;;;;;;34.90;24.77;94874.06;5047045;28;20222;-70
2022/08/18 10:12:26;;;;;;;0.43;0.43;;;;;;;35.23;24.51;94862.31;5057855;28;20219;-69
2022/08/18 10:15:02;;;;;;;0.27;0.27;;;;;;;35.43;24.44;94865.91;5061109;28;20196;-67
2022/08/18 10:18:02;;;;;;;0.30;0.30;;;;;;;35.86;24.42;94855.78;5061729;28;20193;-66
2022/08/18 10:21:08;;;;;;;0.63;0.63;;;;;;;35.65;24.42;94861.63;5060090;28;20203;-68
2022/08/18 10:23:49;;;;;;;0.40;0.40;;;;;;;35.96;26.16;94849.41;5045825;28;20200;-67
2022/08/18 10:26:37;;;;;;;0.63;0.63;;;;;;;36.32;24.18;94855.69;5039002;28;20223;-66
2022/08/18 10:29:10;;;;;;;0.93;0.80;;;;;;;35.27;24.50;94857.56;5065324;28;20286;-68
2022/08/18 10:31:55;;;;;;;0.60;0.40;;;;;;;35.35;24.36;94848.09;5061490;28;20227;-70
2022/08/18 10:34:52;;;;;;;0.63;0.63;;;;;;;35.63;23.84;94842.19;5055226;28;20311;-77
2022/08/18 10:37:25;;;;;;;0.30;0.30;;;;;;;35.46;23.93;94844.03;5069868;28;20241;-67
2022/08/18 10:40:08;;;;;;;1.23;0.93;;;;;;;36.19;24.84;94841.13;5043223;28;20207;-69
2022/08/18 10:42:49;;;;;;;0.70;0.70;;;;;;;36.49;23.52;94832.75;5041288;28;20691;-68
2022/08/18 10:45:29;;;;;;;0.83;0.83;;;;;;;36.86;23.06;94833.53;5051779;28;20664;-70
2022/08/18 10:48:08;;;;;;;1.80;0.90;;;;;;;37.12;23.30;94829.78;5060434;28;20218;-70
2022/08/18 10:51:05;;;;;;;0.60;0.60;;;;;;;37.16;23.10;94825.00;5039459;28;20201;-69
2022/08/18 10:54:15;;;;;;;3.40;0.60;;;;;;;36.91;22.86;94819.38;5029759;28;20251;-69
2022/08/18 10:56:53;;;;;;;0.90;0.63;;;;;;;36.72;22.91;94828.34;5036597;28;20527;-68
2022/08/18 10:59:24;;;;;;;0.87;0.87;;;;;;;36.38;23.02;94820.53;5060006;28;20237;-70
2022/08/18 11:02:29;;;;;;;3.93;0.80;;;;;;;36.54;23.55;94829.53;5049533;28;20652;-69
2022/08/18 11:04:57;;;;;;;0.47;0.47;;;;;;;36.88;25.06;94823.72;5042624;28;20664;-71
2022/08/18 11:07:28;;;;;;;0.93;0.77;;;;;;;36.69;22.05;94821.78;5063780;28;20631;-69
2022/08/18 11:10:14;;;;;;;0.90;0.90;;;;;;;36.72;21.94;94812.75;5049680;28;20196;-69
2022/08/18 11:12:59;;;;;;;0.40;0.40;;;;;;;37.20;21.52;94810.06;5037955;28;20271;-69
2022/08/18 11:15:52;;;;;;;1.80;1.00;;;;;;;36.97;21.22;94812.22;5063083;28;20235;-68
2022/08/18 11:18:27;;;;;;;0.70;0.70;;;;;;;36.71;21.28;94804.97;5038207;28;20257;-68
2022/08/18 11:21:23;;;;;;;0.30;0.30;;;;;;;37.39;20.62;94805.75;5029365;28;20209;-70
2022/08/18 11:24:16;;;;;;;0.57;0.57;;;;;;;36.87;21.12;94807.75;5029265;28;20203;-66
2022/08/18 11:26:47;;;;;;;0.60;0.60;;;;;;;37.23;20.88;94805.69;5049523;28;20199;-70
2022/08/18 11:29:34;;;;;;;1.63;1.53;;;;;;;37.57;21.74;94806.78;5055273;28;20562;-65
2022/08/18 11:32:10;;;;;;;1.43;1.33;;;;;;;38.05;21.64;94797.72;5069386;28;20203;-66
2022/08/18 11:34:37;;;;;;;0.30;0.30;;;;;;;38.26;21.55;94802.63;5055336;28;20282;-68
2022/08/18 11:37:35;;;;;;;1.50;0.87;;;;;;;38.32;21.64;94806.34;5069178;28;20294;-69
2022/08/18 11:40:23;;;;;;;0.60;0.60;;;;;;;38.06;21.12;94810.22;5059658;28;20192;-66
2022/08/18 11:43:19;;;;;;;0.57;0.57;;;;;;;38.30;20.28;94802.53;5054194;28;20322;-72
2022/08/18 11:45:56;;;;;;;0.73;0.73;;;;;;;37.97;20.91;94801.88;5070901;28;20617;-72
2022/08/18 11:48:44;;;;;;;0.83;0.80;;;;;;;38.16;20.49;94800.91;5066114;28;20192;-65
2022/08/18 11:51:30;;;;;;;0.30;0.30;;;;;;;38.56;19.88;94792.38;5037698;28;20216;-66
2022/08/18 11:54:17;;;;;;;0.50;0.50;;;;;;;39.07;20.63;94785.72;5062362;28;20290;-70
2022/08/18 11:56:44;;;;;;;0.40;0.40;;;;;;;38.99;21.08;94787.13;5044635;28;20197;-68
2022/08/18 11:59:27;;;;;;;1.40;1.30;;;;;;;39.41;20.59;94792.00;5073063;28;20199;-67
2022/08/18 12:02:22;;;;;;;1.07;0.83;;;;;;;39.07;20.52;94783.72;5063726;28;20216;-72
2022/08/18 12:04:53;;;;;;;0.47;0.47;;;;;;;38.65;19.47;94781.56;5044723;28;20251;-71
2022/08/18 12:07:50;;;;;;;2.43;0.90;;;;;;;38.82;19.86;94777.47;5057171;28;20227;-71
2022/08/18 12:10:36;;;;;;;0.60;0.60;;;;;;;38.81;19.74;94775.97;5073552;28;20236;-68
2022/08/18 12:13:03;;;;;;;0.67;0.67;;;;;;;39.35;19.76;94771.06;5072518;28;20204;-67
2022/08/18 12:15:34;;;;;;;1.13;1.07;;;;;;;39.09;19.49;94769.59;5044083;28;20609;-69
2022/08/18 12:18:18;;;;;;;0.73;0.73;;;;;;;38.97;18.40;94768.38;5062617;28;20619;-69
2022/08/18 12:20:58;;;;;;;0.37;0.37;;;;;;;39.28;18.55;94765.81;5052576;28;20205;-69
2022/08/18 12:23:30;;;;;;;0.53;0.53;;;;;;;38.53;19.31;94764.66;5041287;28;20535;-70
2022/08/18 12:26:14;;;;;;;0.50;0.50;;;;;;;38.28;19.30;94755.66;5032621;28;20217;-67
2022/08/18 12:29:01;;;;;;;0.90;0.47;;;;;;;37.69;21.25;94764.31;5047291;28;20210;-67
2022/08/18 12:31:28;;;;;;;0.47;0.47;;;;;;;37.81;19.52;94773.78;5052600;28;20287;-67
2022/08/18 12:34:14;;;;;;;0.70;0.60;;;;;;;38.04;19.44;94757.88;5053799;28;20201;-68
2022/08/18 12:36:41;;;;;;;0.33;0.33;;;;;;;38.09;19.65;94760.06;5064266;28;20572;-68
2022/08/18 12:39:09;;;;;;;1.50;1.00;;;;;;;38.67;20.42;94763.47;5066532;28;20196;-64
2022/08/18 12:41:36;;;;;;;4.10;1.47;;;;;;;38.88;19.83;94754.59;5058793;28;20232;-67